Edinburg, ND (58227)

9:26 AM CDT on April 27, 2015 (GMT -0500)
Hoople nd | | Change Station
CLOSE
Current Station
Personal Weather Station
Location: Hoople, ND
Elevation: 870 ft
Nearby Weather Stations

Elev 870 ft 48.52 °N, 97.62 °W | Updated 8 minutes ago

Partly Cloudy
Partly Cloudy
51.3 °F
Feels Like 51.3 °F
N
8.0
Wind Variable Wind from NW
Gusts 12.0 mph

Today
High -- | Low -- °F
--% Chance of Precip.
Yesterday
High -- | Low -- °F
Precip. -- in
6:19 AM 8:40 PM
Waxing Gibbous, 65% visible
Pressure 30.23 in
Visibility 9.0 miles
Clouds Clear
Dew Point 43 °F
Humidity 74%
Rainfall 0.00 in
Snow Depth Not available.
UV 3 out of 12
Pollen 10.70 out of 12
Air Quality Not available.
Flu Activity Regional
METAR K2C8 271415Z AUTO 34010KT 9SM CLR 10/05 A3023 RMK AO2

More Conditions Fewer Conditions

Pressure 30.23 in
Visibility 9.0 miles
Clouds Clear
Dew Point 43 °F
Humidity 74%
Rainfall 0.00 in
Snow Depth Not available.
UV 3 out of 12
Pollen 10.70 out of 12
Air Quality Not available.
Flu Activity Regional
METAR K2C8 271415Z AUTO 34010KT 9SM CLR 10/05 A3023 RMK AO2

More Conditions Fewer Conditions

10-Day Weather Forecast

Almanac

Astronomy

Apr. 27, 2015 Rise Set
Actual Time
Civil Twilight
Nautical Twilight
Astronomical Twilight
Moon
Length of Visible Light
Length of Day
Tomorrow will be .
, % of the Moon is Illuminated

Today's Extremes

State Highs State Lows

Community

WunderPhotos

Upload Photos

1,817,319 photos uploaded!

WunderBlogs® & News

Nearby

Air Quality

  Air Quality AQ Index Pollutant
Not available.

Snow Depth

Station Depth Elevation

Earthquake Activity

City Distance Mag. Time & Date
Minimum magnitude displayed is 2.5.

Coastal Water Temperatures

Place Temperature

Stations

Nearby Weather Stations

Station Location Temp. Windchill Dew Point Humidity Wind Precip. Elev Updated Type